sensor_id;sensor_type;location;lat;lon;timestamp;temperature;humidity
50690;DHT22;71367;48.298;11.238;2023-07-16T00:04:02;20.50;99.60
50690;DHT22;71367;48.298;11.238;2023-07-16T00:19:05;20.30;99.90
50690;DHT22;71367;48.298;11.238;2023-07-16T00:34:08;20.20;99.90
50690;DHT22;71367;48.298;11.238;2023-07-16T00:49:11;20.20;99.90
50690;DHT22;71367;48.298;11.238;2023-07-16T01:04:14;19.80;99.90
50690;DHT22;71367;48.298;11.238;2023-07-16T01:19:16;19.70;99.90
50690;DHT22;71367;48.298;11.238;2023-07-16T01:34:19;19.70;99.90
50690;DHT22;71367;48.298;11.238;2023-07-16T01:49:22;19.90;99.90
50690;DHT22;71367;48.298;11.238;2023-07-16T02:04:24;20.00;99.90
50690;DHT22;71367;48.298;11.238;2023-07-16T02:19:26;20.10;99.90
50690;DHT22;71367;48.298;11.238;2023-07-16T02:34:31;19.90;99.90
50690;DHT22;71367;48.298;11.238;2023-07-16T02:49:34;19.80;99.90
50690;DHT22;71367;48.298;11.238;2023-07-16T03:04:37;19.80;99.90
50690;DHT22;71367;48.298;11.238;2023-07-16T03:19:39;19.50;99.90
50690;DHT22;71367;48.298;11.238;2023-07-16T03:34:41;19.40;99.90
50690;DHT22;71367;48.298;11.238;2023-07-16T03:49:44;19.60;99.90
50690;DHT22;71367;48.298;11.238;2023-07-16T04:04:46;19.50;99.90
50690;DHT22;71367;48.298;11.238;2023-07-16T04:19:49;19.50;99.90
50690;DHT22;71367;48.298;11.238;2023-07-16T04:34:51;19.70;99.90
50690;DHT22;71367;48.298;11.238;2023-07-16T04:49:53;19.60;99.90
50690;DHT22;71367;48.298;11.238;2023-07-16T05:04:56;19.60;99.90
50690;DHT22;71367;48.298;11.238;2023-07-16T05:19:58;19.80;99.90
50690;DHT22;71367;48.298;11.238;2023-07-16T05:35:00;20.20;99.90
50690;DHT22;71367;48.298;11.238;2023-07-16T05:50:04;20.50;99.90
50690;DHT22;71367;48.298;11.238;2023-07-16T06:05:07;20.70;99.90
50690;DHT22;71367;48.298;11.238;2023-07-16T06:20:10;20.90;99.90
50690;DHT22;71367;48.298;11.238;2023-07-16T06:35:13;20.90;99.90
50690;DHT22;71367;48.298;11.238;2023-07-16T06:50:15;20.90;99.90
50690;DHT22;71367;48.298;11.238;2023-07-16T07:05:17;20.50;99.90
50690;DHT22;71367;48.298;11.238;2023-07-16T07:20:20;20.50;99.90
50690;DHT22;71367;48.298;11.238;2023-07-16T07:35:22;20.70;99.70
50690;DHT22;71367;48.298;11.238;2023-07-16T07:50:25;20.90;98.90
50690;DHT22;71367;48.298;11.238;2023-07-16T08:05:28;20.80;95.60
50690;DHT22;71367;48.298;11.238;2023-07-16T08:20:30;20.80;94.20
50690;DHT22;71367;48.298;11.238;2023-07-16T08:35:32;22.10;93.20
50690;DHT22;71367;48.298;11.238;2023-07-16T08:50:35;23.00;91.40
50690;DHT22;71367;48.298;11.238;2023-07-16T09:05:39;23.10;91.10
50690;DHT22;71367;48.298;11.238;2023-07-16T09:20:41;24.70;90.10
50690;DHT22;71367;48.298;11.238;2023-07-16T09:35:43;24.20;88.50
50690;DHT22;71367;48.298;11.238;2023-07-16T09:50:50;26.60;83.20
50690;DHT22;71367;48.298;11.238;2023-07-16T10:05:52;25.60;83.90
50690;DHT22;71367;48.298;11.238;2023-07-16T10:21:00;27.00;78.00
50690;DHT22;71367;48.298;11.238;2023-07-16T10:36:03;25.40;82.70
50690;DHT22;71367;48.298;11.238;2023-07-16T10:51:06;24.60;85.90
50690;DHT22;71367;48.298;11.238;2023-07-16T11:06:08;25.10;84.80
50690;DHT22;71367;48.298;11.238;2023-07-16T11:21:11;27.20;77.60
50690;DHT22;71367;48.298;11.238;2023-07-16T11:36:14;26.20;79.80
50690;DHT22;71367;48.298;11.238;2023-07-16T11:51:16;26.80;75.40
50690;DHT22;71367;48.298;11.238;2023-07-16T12:06:18;29.60;68.50
50690;DHT22;71367;48.298;11.238;2023-07-16T12:21:21;28.80;69.40
50690;DHT22;71367;48.298;11.238;2023-07-16T12:36:23;27.20;73.20
50690;DHT22;71367;48.298;11.238;2023-07-16T12:51:25;27.00;72.10
50690;DHT22;71367;48.298;11.238;2023-07-16T13:06:28;26.80;72.30
50690;DHT22;71367;48.298;11.238;2023-07-16T13:21:30;26.60;71.90
50690;DHT22;71367;48.298;11.238;2023-07-16T13:36:32;27.80;65.20
50690;DHT22;71367;48.298;11.238;2023-07-16T13:51:36;27.30;66.50
50690;DHT22;71367;48.298;11.238;2023-07-16T14:06:39;28.90;60.40
50690;DHT22;71367;48.298;11.238;2023-07-16T14:21:41;29.10;61.20
50690;DHT22;71367;48.298;11.238;2023-07-16T14:36:43;30.40;59.70
50690;DHT22;71367;48.298;11.238;2023-07-16T14:51:46;29.70;57.80
50690;DHT22;71367;48.298;11.238;2023-07-16T15:06:48;29.80;58.20
50690;DHT22;71367;48.298;11.238;2023-07-16T15:21:51;30.60;54.50
50690;DHT22;71367;48.298;11.238;2023-07-16T15:36:53;29.40;56.70
50690;DHT22;71367;48.298;11.238;2023-07-16T15:51:56;28.40;57.70
50690;DHT22;71367;48.298;11.238;2023-07-16T16:06:58;28.00;58.90
50690;DHT22;71367;48.298;11.238;2023-07-16T16:22:01;27.60;61.80
50690;DHT22;71367;48.298;11.238;2023-07-16T16:37:04;26.70;64.50
50690;DHT22;71367;48.298;11.238;2023-07-16T16:52:08;28.00;61.90
50690;DHT22;71367;48.298;11.238;2023-07-16T17:07:10;28.40;60.40
50690;DHT22;71367;48.298;11.238;2023-07-16T17:22:12;27.40;62.80
50690;DHT22;71367;48.298;11.238;2023-07-16T17:37:15;27.20;63.80
50690;DHT22;71367;48.298;11.238;2023-07-16T17:52:17;26.70;64.90
50690;DHT22;71367;48.298;11.238;2023-07-16T18:07:19;26.50;66.10
50690;DHT22;71367;48.298;11.238;2023-07-16T18:22:22;25.80;68.60
50690;DHT22;71367;48.298;11.238;2023-07-16T18:37:24;25.40;71.00
50690;DHT22;71367;48.298;11.238;2023-07-16T18:52:27;24.90;73.20
50690;DHT22;71367;48.298;11.238;2023-07-16T19:07:29;24.30;76.30
50690;DHT22;71367;48.298;11.238;2023-07-16T19:22:32;23.80;79.20
50690;DHT22;71367;48.298;11.238;2023-07-16T19:37:34;23.40;81.90
50690;DHT22;71367;48.298;11.238;2023-07-16T19:52:37;23.00;84.70
50690;DHT22;71367;48.298;11.238;2023-07-16T20:07:41;22.50;86.80
50690;DHT22;71367;48.298;11.238;2023-07-16T20:22:44;22.30;88.30
50690;DHT22;71367;48.298;11.238;2023-07-16T20:37:46;22.00;89.20
50690;DHT22;71367;48.298;11.238;2023-07-16T20:52:49;21.90;90.40
50690;DHT22;71367;48.298;11.238;2023-07-16T21:07:52;21.80;90.80
50690;DHT22;71367;48.298;11.238;2023-07-16T21:22:55;21.50;93.00
50690;DHT22;71367;48.298;11.238;2023-07-16T21:37:58;21.20;93.90
50690;DHT22;71367;48.298;11.238;2023-07-16T21:53:01;21.10;93.90
50690;DHT22;71367;48.298;11.238;2023-07-16T22:08:04;21.00;94.70
50690;DHT22;71367;48.298;11.238;2023-07-16T22:23:06;20.80;96.50
50690;DHT22;71367;48.298;11.238;2023-07-16T22:38:09;20.50;97.10
50690;DHT22;71367;48.298;11.238;2023-07-16T22:53:11;20.20;98.50
50690;DHT22;71367;48.298;11.238;2023-07-16T23:08:13;20.10;97.80
50690;DHT22;71367;48.298;11.238;2023-07-16T23:23:16;19.80;98.80
50690;DHT22;71367;48.298;11.238;2023-07-16T23:53:31;19.50;99.90
